createdAt,value
2022-11-24T00:00:11.059Z,98246.46
2022-11-24T00:01:11.068Z,98249.37
2022-11-24T00:02:11.215Z,98243.53
2022-11-24T00:03:11.262Z,98250.98
2022-11-24T00:04:11.067Z,98250.97
2022-11-24T00:05:11.058Z,98254.44
2022-11-24T00:06:14.060Z,98259.68
2022-11-24T00:07:11.092Z,98261.42
2022-11-24T00:08:11.060Z,98265.44
2022-11-24T00:09:11.058Z,98269.50
2022-11-24T00:10:11.067Z,98269.08
2022-11-24T00:11:11.063Z,98273.08
2022-11-24T00:12:11.056Z,98271.43
2022-11-24T00:13:11.071Z,98276.77
2022-11-24T00:14:11.062Z,98277.92
2022-11-24T00:15:11.057Z,98275.63
2022-11-24T00:16:14.137Z,98275.04
2022-11-24T00:17:11.121Z,98279.60
2022-11-24T00:18:11.060Z,98285.30
2022-11-24T00:19:14.614Z,98287.65
2022-11-24T00:20:13.063Z,98290.73
2022-11-24T00:21:11.061Z,98301.44
2022-11-24T00:22:11.063Z,98297.16
2022-11-24T00:23:11.070Z,98298.89
2022-11-24T00:24:11.059Z,98305.30
2022-11-24T00:25:11.062Z,98312.37
2022-11-24T00:26:11.089Z,98320.61
2022-11-24T00:27:11.062Z,98317.02
2022-11-24T00:28:11.058Z,98323.16
2022-11-24T00:29:11.064Z,98324.25
2022-11-24T00:30:11.063Z,98321.48
2022-11-24T00:31:19.133Z,98327.07
2022-11-24T00:32:11.064Z,98331.65
2022-11-24T00:33:11.063Z,98324.62
2022-11-24T00:34:12.063Z,98330.86
2022-11-24T00:35:11.064Z,98330.89
2022-11-24T00:36:11.063Z,98337.73
2022-11-24T00:37:11.060Z,98338.55
2022-11-24T00:38:11.060Z,98333.37
2022-11-24T00:39:12.063Z,98340.23
2022-11-24T00:40:11.057Z,98334.07
2022-11-24T00:41:11.064Z,98344.64
2022-11-24T00:42:11.064Z,98343.96
2022-11-24T00:43:11.059Z,98347.73
2022-11-24T00:44:11.071Z,98349.55
2022-11-24T00:45:14.235Z,98348.23
2022-11-24T00:46:11.209Z,98345.11
2022-11-24T00:47:11.173Z,98353.57
2022-11-24T00:48:11.065Z,98356.93
2022-11-24T00:49:11.061Z,98354.93
2022-11-24T00:50:11.063Z,98359.35
2022-11-24T00:51:11.065Z,98358.86
2022-11-24T00:52:11.057Z,98360.87
2022-11-24T00:53:11.064Z,98362.01
2022-11-24T00:54:11.064Z,98363.37
2022-11-24T00:55:11.063Z,98361.60
2022-11-24T00:56:11.073Z,98369.98
2022-11-24T00:57:11.065Z,98373.05
2022-11-24T00:58:11.063Z,98377.57
2022-11-24T00:59:11.067Z,98386.95
2022-11-24T01:00:11.068Z,98387.90
2022-11-24T01:01:12.130Z,98389.37
2022-11-24T01:02:11.092Z,98387.65
2022-11-24T01:03:11.064Z,98392.10
2022-11-24T01:04:11.060Z,98395.92
2022-11-24T01:05:11.066Z,98396.86
2022-11-24T01:06:11.068Z,98397.28
2022-11-24T01:07:11.174Z,98398.55
2022-11-24T01:08:11.066Z,98398.20
2022-11-24T01:09:11.072Z,98400.67
2022-11-24T01:10:11.062Z,98401.78
2022-11-24T01:11:14.064Z,98400.40
2022-11-24T01:12:11.074Z,98399.60
2022-11-24T01:13:11.062Z,98403.86
2022-11-24T01:14:11.064Z,98405.11
2022-11-24T01:15:11.073Z,98406.20
2022-11-24T01:16:21.150Z,98409.58
2022-11-24T01:17:11.061Z,98407.27
2022-11-24T01:18:11.076Z,98409.06
2022-11-24T01:19:11.073Z,98409.41
2022-11-24T01:20:11.063Z,98407.05
2022-11-24T01:21:11.080Z,98411.80
2022-11-24T01:22:11.075Z,98412.99
2022-11-24T01:23:11.062Z,98414.40
2022-11-24T01:24:11.063Z,98403.88
2022-11-24T01:25:11.082Z,98402.15
2022-11-24T01:26:11.068Z,98402.09
2022-11-24T01:27:11.062Z,98404.48
2022-11-24T01:28:11.074Z,98408.57
2022-11-24T01:29:12.065Z,98408.95
2022-11-24T01:30:11.081Z,98409.60
2022-11-24T01:31:11.121Z,98413.25
2022-11-24T01:32:11.068Z,98414.80
2022-11-24T01:33:11.070Z,98412.00
2022-11-24T01:34:11.073Z,98416.07
2022-11-24T01:35:11.069Z,98418.07
2022-11-24T01:36:11.065Z,98415.56
2022-11-24T01:37:11.066Z,98416.59
2022-11-24T01:38:11.069Z,98421.14
2022-11-24T01:39:11.063Z,98420.33
2022-11-24T01:40:11.069Z,98418.95
2022-11-24T01:41:14.066Z,98420.49
2022-11-24T01:42:11.066Z,98416.29
2022-11-24T01:43:18.079Z,98412.12
2022-11-24T01:44:19.066Z,98408.71
2022-11-24T01:45:19.066Z,98418.62
2022-11-24T01:46:19.156Z,98419.06
2022-11-24T01:47:19.066Z,98421.93
2022-11-24T01:48:21.134Z,98429.12
2022-11-24T01:49:20.084Z,98432.34
2022-11-24T01:50:16.087Z,98435.59
2022-11-24T01:51:13.065Z,98434.34
2022-11-24T01:52:19.068Z,98439.68
2022-11-24T01:53:11.074Z,98446.26
2022-11-24T01:54:16.065Z,98449.08
2022-11-24T01:55:13.064Z,98457.59
2022-11-24T01:56:11.068Z,98464.36
2022-11-24T01:57:16.067Z,98464.13
2022-11-24T01:58:17.064Z,98466.57
2022-11-24T01:59:14.070Z,98469.41
2022-11-24T02:00:12.069Z,98473.07
2022-11-24T02:01:11.088Z,98477.05
2022-11-24T02:02:11.162Z,98477.32
2022-11-24T02:03:13.099Z,98483.28
2022-11-24T02:04:13.071Z,98481.74
2022-11-24T02:05:17.079Z,98481.60
2022-11-24T02:06:13.071Z,98479.43
2022-11-24T02:07:11.127Z,98476.65
2022-11-24T02:08:21.082Z,98472.75
2022-11-24T02:09:19.071Z,98474.12
2022-11-24T02:10:14.090Z,98477.68
2022-11-24T02:11:11.069Z,98480.79
2022-11-24T02:12:11.072Z,98476.78
2022-11-24T02:13:11.071Z,98477.27
2022-11-24T02:14:13.070Z,98479.02
2022-11-24T02:15:11.076Z,98477.95
2022-11-24T02:16:12.155Z,98473.02
2022-11-24T02:17:11.063Z,98472.51
2022-11-24T02:18:11.070Z,98477.95
2022-11-24T02:19:19.070Z,98473.14
2022-11-24T02:20:11.068Z,98477.25
2022-11-24T02:21:11.067Z,98476.00
2022-11-24T02:22:21.070Z,98481.42
2022-11-24T02:23:24.069Z,98483.75
2022-11-24T02:24:24.091Z,98484.11
2022-11-24T02:25:19.066Z,98483.54
2022-11-24T02:26:22.070Z,98481.13
2022-11-24T02:27:11.070Z,98487.33
2022-11-24T02:28:13.071Z,98497.12
2022-11-24T02:29:11.076Z,98495.84
2022-11-24T02:30:11.068Z,98497.99
2022-11-24T02:31:11.162Z,98497.71
2022-11-24T02:32:11.066Z,98497.55
2022-11-24T02:33:11.071Z,98497.30
2022-11-24T02:34:11.070Z,98491.25
2022-11-24T02:35:11.069Z,98496.61
2022-11-24T02:36:11.068Z,98496.45
2022-11-24T02:37:11.077Z,98497.89
2022-11-24T02:38:13.068Z,98497.30
2022-11-24T02:39:13.069Z,98496.70
2022-11-24T02:40:11.078Z,98499.45
2022-11-24T02:41:13.069Z,98497.39
2022-11-24T02:42:13.075Z,98496.25
2022-11-24T02:43:13.072Z,98500.57
2022-11-24T02:44:11.079Z,98504.49
2022-11-24T02:45:11.069Z,98512.95
2022-11-24T02:46:11.181Z,98513.82
2022-11-24T02:47:11.070Z,98523.48
2022-11-24T02:48:11.060Z,98522.85
2022-11-24T02:49:11.060Z,98521.28
2022-11-24T02:50:11.057Z,98522.94
2022-11-24T02:51:11.058Z,98524.10
2022-11-24T02:52:11.057Z,98525.38
2022-11-24T02:53:11.058Z,98523.27
2022-11-24T02:54:11.057Z,98525.60
2022-11-24T02:55:11.061Z,98522.11
2022-11-24T02:56:11.058Z,98525.20
2022-11-24T02:57:11.056Z,98530.12
2022-11-24T02:58:11.063Z,98532.78
2022-11-24T02:59:11.058Z,98528.85
2022-11-24T03:00:11.055Z,98528.62
2022-11-24T03:01:11.133Z,98531.44
2022-11-24T03:02:11.065Z,98531.58
2022-11-24T03:03:11.123Z,98534.85
2022-11-24T03:04:11.066Z,98533.44
2022-11-24T03:05:11.065Z,98535.46
2022-11-24T03:06:11.057Z,98535.84
2022-11-24T03:07:11.125Z,98531.89
2022-11-24T03:08:11.068Z,98530.37
2022-11-24T03:09:11.061Z,98535.14
2022-11-24T03:10:11.061Z,98527.28
2022-11-24T03:11:11.069Z,98537.31
2022-11-24T03:12:11.057Z,98533.35
2022-11-24T03:13:11.062Z,98536.11
2022-11-24T03:14:11.065Z,98531.51
2022-11-24T03:15:11.057Z,98532.20
2022-11-24T03:16:11.104Z,98538.47
2022-11-24T03:17:11.067Z,98543.52
2022-11-24T03:18:11.058Z,98539.61
2022-11-24T03:19:11.062Z,98543.58
2022-11-24T03:20:11.067Z,98545.21
2022-11-24T03:21:11.059Z,98548.06
2022-11-24T03:22:11.061Z,98549.31
2022-11-24T03:23:11.069Z,98545.95
2022-11-24T03:24:11.059Z,98550.07
2022-11-24T03:25:11.061Z,98559.32
2022-11-24T03:26:15.064Z,98557.70
2022-11-24T03:27:11.057Z,98557.34
2022-11-24T03:28:11.062Z,98551.45
2022-11-24T03:29:11.068Z,98551.54
2022-11-24T03:30:11.058Z,98556.20
2022-11-24T03:31:11.141Z,98553.27
2022-11-24T03:32:11.069Z,98556.25
2022-11-24T03:33:11.059Z,98557.81
2022-11-24T03:34:11.075Z,98551.57
2022-11-24T03:35:11.067Z,98558.95
2022-11-24T03:36:11.058Z,98559.49
2022-11-24T03:37:11.065Z,98560.56
2022-11-24T03:38:11.068Z,98557.16
2022-11-24T03:39:11.062Z,98557.54
2022-11-24T03:40:11.063Z,98561.07
2022-11-24T03:41:11.069Z,98570.75
2022-11-24T03:42:11.062Z,98562.41
2022-11-24T03:43:11.059Z,98564.39
2022-11-24T03:44:11.061Z,98567.62
2022-11-24T03:45:37.973Z,98569.45
2022-11-24T03:46:13.406Z,98566.43
2022-11-24T03:47:11.062Z,98568.65
2022-11-24T03:48:11.071Z,98578.61
2022-11-24T03:49:11.062Z,98578.69
2022-11-24T03:50:11.060Z,98576.35
2022-11-24T03:51:11.065Z,98581.07
2022-11-24T03:52:11.063Z,98579.39
2022-11-24T03:53:11.062Z,98582.10
2022-11-24T03:54:11.066Z,98589.75
2022-11-24T03:55:11.065Z,98583.29
2022-11-24T03:56:11.061Z,98583.78
2022-11-24T03:57:11.070Z,98585.03
2022-11-24T03:58:11.063Z,98589.80
2022-11-24T03:59:11.063Z,98588.50
2022-11-24T04:00:11.071Z,98590.40
2022-11-24T04:01:11.061Z,98587.74
2022-11-24T04:02:11.104Z,98587.32
2022-11-24T04:03:11.134Z,98590.63
2022-11-24T04:04:12.062Z,98593.93
2022-11-24T04:05:11.065Z,98593.14
2022-11-24T04:06:11.071Z,98592.32
2022-11-24T04:07:11.077Z,98599.05
2022-11-24T04:08:11.060Z,98602.41
2022-11-24T04:09:11.066Z,98603.66
2022-11-24T04:10:11.067Z,98608.15
2022-11-24T04:11:11.063Z,98610.60
2022-11-24T04:12:15.066Z,98613.07
2022-11-24T04:13:14.066Z,98616.71
2022-11-24T04:14:13.708Z,98617.73
2022-11-24T04:15:14.070Z,98613.89
2022-11-24T04:16:11.112Z,98615.37
2022-11-24T04:17:11.066Z,98618.45
2022-11-24T04:18:11.073Z,98621.39
2022-11-24T04:23:13.032Z,98618.62
2022-11-24T04:24:11.067Z,98624.31
2022-11-24T04:25:11.062Z,98625.34
2022-11-24T04:26:11.063Z,98628.92
2022-11-24T04:27:11.068Z,98629.14
2022-11-24T04:28:11.061Z,98627.49
2022-11-24T04:29:11.064Z,98627.44
2022-11-24T04:30:11.074Z,98631.73
2022-11-24T04:31:11.132Z,98636.66
2022-11-24T04:32:11.070Z,98635.91
2022-11-24T04:33:11.074Z,98633.42
2022-11-24T04:34:11.064Z,98632.75
2022-11-24T04:35:11.063Z,98633.37
2022-11-24T04:36:11.073Z,98634.56
2022-11-24T04:37:11.066Z,98635.06
2022-11-24T04:38:11.064Z,98633.85
2022-11-24T04:39:23.900Z,98633.80
2022-11-24T04:40:13.049Z,98632.23
2022-11-24T04:41:11.066Z,98631.36
2022-11-24T04:42:11.065Z,98628.32
2022-11-24T04:43:11.067Z,98631.12
2022-11-24T04:44:11.062Z,98631.34
2022-11-24T04:45:11.066Z,98632.04
2022-11-24T04:46:11.181Z,98631.18
2022-11-24T04:47:16.065Z,98633.61
2022-11-24T04:48:11.066Z,98636.01
2022-11-24T04:49:11.073Z,98632.86
2022-11-24T04:50:11.065Z,98638.39
2022-11-24T04:51:11.069Z,98643.70
2022-11-24T04:52:11.078Z,98638.35
2022-11-24T04:53:11.067Z,98638.25
2022-11-24T04:54:11.082Z,98639.00
2022-11-24T04:55:11.082Z,98646.47
2022-11-24T04:56:11.064Z,98644.97
2022-11-24T04:57:18.069Z,98647.34
2022-11-24T04:58:11.067Z,98646.61
2022-11-24T04:59:13.069Z,98644.98
2022-11-24T05:00:11.068Z,98644.49
2022-11-24T05:01:11.066Z,98652.02
2022-11-24T05:02:11.161Z,98658.20
2022-11-24T05:03:11.069Z,98653.49
2022-11-24T05:04:11.119Z,98661.83
2022-11-24T05:05:11.075Z,98658.63
2022-11-24T05:06:11.070Z,98656.95
2022-11-24T05:07:17.695Z,98662.16
2022-11-24T05:08:13.763Z,98663.46
2022-11-24T05:09:13.069Z,98663.79
2022-11-24T05:10:15.067Z,98667.76
2022-11-24T05:11:11.066Z,98669.64
2022-11-24T05:12:11.077Z,98677.02
2022-11-24T05:13:14.066Z,98677.29
2022-11-24T05:14:11.066Z,98680.70
2022-11-24T05:15:11.071Z,98681.08
2022-11-24T05:16:11.135Z,98675.12
2022-11-24T05:17:11.069Z,98676.11
2022-11-24T05:18:12.067Z,98676.54
2022-11-24T05:19:11.071Z,98672.04
2022-11-24T05:20:11.069Z,98667.38
2022-11-24T05:21:11.069Z,98664.40
2022-11-24T05:22:11.080Z,98663.31
2022-11-24T05:23:11.070Z,98665.31
2022-11-24T05:24:11.076Z,98666.63
2022-11-24T05:25:11.077Z,98665.16
2022-11-24T05:26:11.071Z,98672.64
2022-11-24T05:27:11.071Z,98677.41
2022-11-24T05:28:11.077Z,98678.44
2022-11-24T05:29:11.072Z,98677.46
2022-11-24T05:30:11.072Z,98677.03
2022-11-24T05:31:11.116Z,98680.66
2022-11-24T05:32:11.069Z,98682.01
2022-11-24T05:33:14.073Z,98684.02
2022-11-24T05:34:11.075Z,98690.52
2022-11-24T05:35:11.070Z,98688.84
2022-11-24T05:36:11.069Z,98684.40
2022-11-24T05:37:11.073Z,98685.21
2022-11-24T05:38:11.073Z,98680.43
2022-11-24T05:39:11.069Z,98682.93
2022-11-24T05:40:11.067Z,98685.96
2022-11-24T05:41:11.070Z,98680.98
2022-11-24T05:42:15.072Z,98685.14
2022-11-24T05:43:17.074Z,98682.33
2022-11-24T05:44:11.068Z,98689.26
2022-11-24T05:45:15.069Z,98690.35
2022-11-24T05:46:11.201Z,98694.56
2022-11-24T05:47:11.070Z,98702.43
2022-11-24T05:48:12.064Z,98695.06
2022-11-24T05:49:11.060Z,98694.07
2022-11-24T05:50:11.061Z,98693.10
2022-11-24T05:51:11.063Z,98699.22
2022-11-24T05:52:11.059Z,98706.66
2022-11-24T05:53:12.062Z,98711.64
2022-11-24T05:54:11.061Z,98712.18
2022-11-24T05:55:11.060Z,98713.81
2022-11-24T05:56:11.061Z,98722.42
2022-11-24T05:57:11.076Z,98716.84
2022-11-24T05:58:11.061Z,98718.39
2022-11-24T05:59:11.063Z,98718.21
2022-11-24T06:00:11.073Z,98712.47
2022-11-24T06:01:11.059Z,98708.95
2022-11-24T06:02:11.131Z,98717.62
2022-11-24T06:03:11.162Z,98715.28
2022-11-24T06:04:11.063Z,98718.87
2022-11-24T06:05:11.063Z,98718.20
2022-11-24T06:06:11.069Z,98709.52
2022-11-24T06:07:11.098Z,98712.59
2022-11-24T06:08:11.057Z,98711.61
2022-11-24T06:09:11.064Z,98713.83
2022-11-24T06:10:11.062Z,98704.81
2022-11-24T06:11:15.057Z,98703.66
2022-11-24T06:12:11.063Z,98711.74
2022-11-24T06:13:11.120Z,98702.73
2022-11-24T06:14:11.670Z,98707.77
2022-11-24T06:15:11.064Z,98713.72
2022-11-24T06:16:11.116Z,98711.05
2022-11-24T06:17:11.066Z,98712.03
2022-11-24T06:18:11.063Z,98722.15
2022-11-24T06:19:11.072Z,98717.95
2022-11-24T06:20:11.061Z,98716.05
2022-11-24T06:21:11.864Z,98716.96
2022-11-24T06:22:11.070Z,98707.29
2022-11-24T06:23:11.063Z,98709.41
2022-11-24T06:24:11.059Z,98708.25
2022-11-24T06:25:11.066Z,98702.55
2022-11-24T06:26:11.067Z,98705.84
2022-11-24T06:27:11.062Z,98708.02
2022-11-24T06:28:11.064Z,98707.40
2022-11-24T06:29:11.067Z,98703.28
2022-11-24T06:30:11.061Z,98711.08
2022-11-24T06:31:11.119Z,98714.77
2022-11-24T06:32:11.064Z,98717.05
2022-11-24T06:33:11.062Z,98716.65
2022-11-24T06:34:11.069Z,98719.18
2022-11-24T06:35:13.072Z,98722.32
2022-11-24T06:36:12.063Z,98722.53
2022-11-24T06:37:11.060Z,98718.79
2022-11-24T06:38:11.068Z,98719.75
2022-11-24T06:39:11.063Z,98717.54
2022-11-24T06:40:11.062Z,98718.12
2022-11-24T06:41:14.075Z,98720.89
2022-11-24T06:42:11.065Z,98725.10
2022-11-24T06:43:11.063Z,98724.61
2022-11-24T06:44:11.064Z,98723.45
2022-11-24T06:45:11.066Z,98721.45
2022-11-24T06:46:11.139Z,98725.46
2022-11-24T06:47:11.065Z,98730.82
2022-11-24T06:48:11.065Z,98729.30
2022-11-24T06:49:11.063Z,98729.41
2022-11-24T06:50:11.063Z,98727.07
2022-11-24T06:51:11.067Z,98724.20
2022-11-24T06:52:11.063Z,98720.20
2022-11-24T06:53:11.067Z,98723.40
2022-11-24T06:54:11.075Z,98728.34
2022-11-24T06:55:11.065Z,98728.50
2022-11-24T06:56:16.444Z,98731.49
2022-11-24T06:57:11.075Z,98732.82
2022-11-24T06:58:11.065Z,98730.15
2022-11-24T06:59:18.069Z,98729.23
2022-11-24T07:00:11.069Z,98727.60
2022-11-24T07:01:13.135Z,98724.14
2022-11-24T07:02:11.067Z,98717.94
2022-11-24T07:03:15.173Z,98719.95
2022-11-24T07:04:11.075Z,98722.22
2022-11-24T07:05:11.066Z,98717.72
2022-11-24T07:06:11.067Z,98722.68
2022-11-24T07:07:11.126Z,98727.22
2022-11-24T07:08:17.408Z,98726.09
2022-11-24T07:09:13.741Z,98730.76
2022-11-24T07:10:11.069Z,98727.92
2022-11-24T07:11:11.067Z,98728.81
2022-11-24T07:12:11.068Z,98728.86
2022-11-24T07:13:11.068Z,98729.84
2022-11-24T07:14:11.069Z,98733.05
2022-11-24T07:15:11.063Z,98736.58
2022-11-24T07:16:19.118Z,98738.64
2022-11-24T07:17:11.069Z,98737.77
2022-11-24T07:18:11.067Z,98735.53
2022-11-24T07:19:11.068Z,98732.92
2022-11-24T07:20:11.073Z,98737.20
2022-11-24T07:21:11.066Z,98733.19
2022-11-24T07:22:11.064Z,98739.81
2022-11-24T07:23:11.070Z,98739.65
2022-11-24T07:24:11.069Z,98739.81
2022-11-24T07:25:11.069Z,98741.51
2022-11-24T07:26:11.070Z,98743.31
2022-11-24T07:27:11.070Z,98742.21
2022-11-24T07:28:11.066Z,98746.18
2022-11-24T07:29:11.067Z,98745.97
2022-11-24T07:30:11.070Z,98748.73
2022-11-24T07:31:14.152Z,98745.98
2022-11-24T07:32:11.125Z,98744.68
2022-11-24T07:33:11.075Z,98744.03
2022-11-24T07:34:11.067Z,98748.14
2022-11-24T07:35:11.075Z,98744.50
2022-11-24T07:36:11.076Z,98740.16
2022-11-24T07:37:11.066Z,98735.45
2022-11-24T07:38:11.071Z,98731.37
2022-11-24T07:39:11.077Z,98729.25
2022-11-24T07:40:11.074Z,98731.93
2022-11-24T07:41:12.071Z,98731.48
2022-11-24T07:42:11.077Z,98732.31
2022-11-24T07:43:14.595Z,98731.71
2022-11-24T07:44:13.058Z,98726.41
2022-11-24T07:45:11.069Z,98728.63
2022-11-24T07:46:11.127Z,98729.82
2022-11-24T07:47:11.067Z,98727.11
2022-11-24T07:48:11.069Z,98733.51
2022-11-24T07:49:11.077Z,98729.22
2022-11-24T07:50:11.078Z,98728.70
2022-11-24T07:51:11.067Z,98723.49
2022-11-24T07:52:11.070Z,98716.68
2022-11-24T07:53:11.068Z,98722.00
2022-11-24T07:54:11.072Z,98721.77
2022-11-24T07:55:11.077Z,98721.82
2022-11-24T07:56:11.068Z,98728.43
2022-11-24T07:57:11.069Z,98724.91
2022-11-24T07:58:11.076Z,98727.12
2022-11-24T07:59:11.068Z,98723.28
2022-11-24T08:00:11.070Z,98727.88
2022-11-24T08:01:14.224Z,98732.62
2022-11-24T08:02:12.112Z,98734.47
2022-11-24T08:03:11.138Z,98737.93
2022-11-24T08:04:11.155Z,98738.34
2022-11-24T08:05:11.070Z,98742.52
2022-11-24T08:06:26.562Z,98739.39
2022-11-24T08:07:13.083Z,98740.03
2022-11-24T08:08:11.073Z,98740.50
2022-11-24T08:09:11.067Z,98745.64
2022-11-24T08:10:11.077Z,98753.17
2022-11-24T08:11:11.072Z,98753.82
2022-11-24T08:12:11.068Z,98750.44
2022-11-24T08:13:11.071Z,98750.82
2022-11-24T08:14:11.070Z,98749.39
2022-11-24T08:15:11.533Z,98744.85
2022-11-24T08:16:11.151Z,98747.32
2022-11-24T08:17:11.154Z,98749.34
2022-11-24T08:18:11.070Z,98755.86
2022-11-24T08:19:11.072Z,98747.60
2022-11-24T08:20:11.072Z,98746.68
2022-11-24T08:21:14.104Z,98740.47
2022-11-24T08:22:11.074Z,98740.65
2022-11-24T08:23:11.074Z,98739.46
2022-11-24T08:24:11.073Z,98743.25
2022-11-24T08:25:11.072Z,98740.79
2022-11-24T08:26:13.073Z,98734.59
2022-11-24T08:27:11.070Z,98740.78
2022-11-24T08:28:11.075Z,98740.78
2022-11-24T08:29:11.073Z,98739.02
2022-11-24T08:30:11.069Z,98733.86
2022-11-24T08:31:13.073Z,98731.29
2022-11-24T08:32:11.113Z,98729.77
2022-11-24T08:33:11.072Z,98726.52
2022-11-24T08:34:11.072Z,98729.52
2022-11-24T08:35:14.520Z,98731.46
2022-11-24T08:36:12.083Z,98735.37
2022-11-24T08:37:11.071Z,98734.12
2022-11-24T08:38:11.077Z,98739.71
2022-11-24T08:39:11.071Z,98731.62
2022-11-24T08:40:11.076Z,98734.95
2022-11-24T08:41:14.080Z,98739.33
2022-11-24T08:42:11.071Z,98741.23
2022-11-24T08:43:11.150Z,98744.51
2022-11-24T08:44:12.100Z,98737.66
2022-11-24T08:45:20.353Z,98737.03
2022-11-24T08:46:15.846Z,98735.60
2022-11-24T08:47:11.074Z,98734.62
2022-11-24T08:48:11.067Z,98732.39
2022-11-24T08:49:11.061Z,98727.36
2022-11-24T08:50:11.062Z,98730.08
2022-11-24T08:51:15.066Z,98732.94
2022-11-24T08:52:11.060Z,98731.91
2022-11-24T08:53:11.058Z,98731.58
2022-11-24T08:54:11.072Z,98725.93
2022-11-24T08:55:11.061Z,98726.04
2022-11-24T08:56:11.055Z,98722.87
2022-11-24T08:57:17.208Z,98714.44
2022-11-24T08:58:13.049Z,98711.27
2022-11-24T08:59:13.145Z,98709.15
2022-11-24T09:00:11.063Z,98708.48
2022-11-24T09:01:16.140Z,98704.68
2022-11-24T09:02:13.062Z,98713.40
2022-11-24T09:03:12.065Z,98713.54
2022-11-24T09:04:11.091Z,98706.70
2022-11-24T09:05:35.836Z,98700.67
2022-11-24T09:06:13.049Z,98703.98
2022-11-24T09:07:11.170Z,98699.29
2022-11-24T09:08:11.062Z,98693.64
2022-11-24T09:09:11.061Z,98690.49
2022-11-24T09:10:11.062Z,98682.32
2022-11-24T09:11:11.062Z,98684.84
2022-11-24T09:12:14.272Z,98688.84
2022-11-24T09:13:11.062Z,98683.25
2022-11-24T09:14:11.070Z,98682.00
2022-11-24T09:15:11.073Z,98680.42
2022-11-24T09:16:15.158Z,98679.36
2022-11-24T09:17:11.135Z,98679.42
2022-11-24T09:18:11.062Z,98678.71
2022-11-24T09:19:11.061Z,98679.55
2022-11-24T09:20:11.066Z,98676.97
2022-11-24T09:21:17.063Z,98669.83
2022-11-24T09:22:11.061Z,98677.65
2022-11-24T09:23:11.061Z,98672.52
2022-11-24T09:24:11.081Z,98672.35
2022-11-24T09:25:11.061Z,98667.08
2022-11-24T09:26:11.064Z,98663.49
2022-11-24T09:27:11.068Z,98664.71
2022-11-24T09:28:11.062Z,98660.66
2022-11-24T09:29:11.063Z,98664.27
2022-11-24T09:30:11.069Z,98659.11
2022-11-24T09:31:11.100Z,98659.88
2022-11-24T09:32:11.064Z,98655.28
2022-11-24T09:33:11.071Z,98655.49
2022-11-24T09:34:13.066Z,98652.58
2022-11-24T09:35:11.065Z,98652.58
2022-11-24T09:36:11.102Z,98655.32
2022-11-24T09:37:11.060Z,98657.66
2022-11-24T09:38:11.063Z,98658.61
2022-11-24T09:39:11.071Z,98660.35
2022-11-24T09:40:14.061Z,98660.43
2022-11-24T09:41:21.064Z,98658.33
2022-11-24T09:42:15.064Z,98657.95
2022-11-24T09:43:21.063Z,98649.93
2022-11-24T09:44:21.061Z,98651.01
2022-11-24T09:45:35.380Z,98644.50
2022-11-24T09:46:21.875Z,98645.80
2022-11-24T09:47:21.066Z,98639.74
2022-11-24T09:48:17.081Z,98639.05
2022-11-24T09:49:16.064Z,98636.28
2022-11-24T09:50:21.177Z,98639.72
2022-11-24T09:51:19.065Z,98634.11
2022-11-24T09:52:15.066Z,98631.01
2022-11-24T09:53:19.068Z,98633.50
2022-11-24T09:54:18.063Z,98631.54
2022-11-24T09:55:19.060Z,98631.33
2022-11-24T09:56:20.068Z,98618.75
2022-11-24T09:57:14.073Z,98632.13
2022-11-24T09:58:17.064Z,98627.65
2022-11-24T09:59:20.064Z,98632.83
2022-11-24T10:00:14.090Z,98633.12
2022-11-24T10:01:18.163Z,98632.39
2022-11-24T10:02:13.068Z,98628.47
2022-11-24T10:03:20.068Z,98629.27
2022-11-24T10:04:20.099Z,98624.76
2022-11-24T10:05:12.111Z,98626.19
2022-11-24T10:06:20.066Z,98624.46
2022-11-24T10:07:21.231Z,98619.79
2022-11-24T10:08:18.064Z,98618.69
2022-11-24T10:09:19.068Z,98619.55
2022-11-24T10:10:22.912Z,98621.79
2022-11-24T10:11:16.068Z,98624.70
2022-11-24T10:12:19.070Z,98619.80
2022-11-24T10:13:19.065Z,98612.83
2022-11-24T10:14:21.062Z,98619.16
2022-11-24T10:15:19.094Z,98614.64
2022-11-24T10:16:19.092Z,98611.93
2022-11-24T10:17:19.068Z,98614.52
2022-11-24T10:18:19.065Z,98612.48
2022-11-24T10:19:19.062Z,98609.50
2022-11-24T10:20:19.107Z,98602.81
2022-11-24T10:21:23.074Z,98598.73
2022-11-24T10:22:21.068Z,98606.31
2022-11-24T10:23:21.067Z,98610.46
2022-11-24T10:24:19.067Z,98607.44
2022-11-24T10:25:19.064Z,98607.99
2022-11-24T10:26:18.069Z,98604.16
2022-11-24T10:27:17.075Z,98600.80
2022-11-24T10:28:15.067Z,98607.27
2022-11-24T10:29:18.070Z,98598.12
2022-11-24T10:30:16.067Z,98598.55
2022-11-24T10:31:19.175Z,98595.23
2022-11-24T10:32:17.069Z,98592.55
2022-11-24T10:33:19.074Z,98593.54
2022-11-24T10:34:17.069Z,98594.07
2022-11-24T10:35:19.093Z,98588.32
2022-11-24T10:36:16.070Z,98584.06
2022-11-24T10:37:18.082Z,98588.43
2022-11-24T10:38:21.070Z,98577.63
2022-11-24T10:39:19.069Z,98579.17
2022-11-24T10:40:41.012Z,98582.49
2022-11-24T10:41:20.064Z,98579.77
2022-11-24T10:42:23.070Z,98568.95
2022-11-24T10:43:14.068Z,98566.09
2022-11-24T10:44:15.069Z,98556.85
2022-11-24T10:45:14.073Z,98563.61
2022-11-24T10:46:16.160Z,98561.60
2022-11-24T10:47:19.072Z,98561.77
2022-11-24T10:48:19.073Z,98556.00
2022-11-24T10:49:21.073Z,98554.83
2022-11-24T10:50:19.083Z,98555.82
2022-11-24T10:51:19.071Z,98554.39
2022-11-24T10:52:14.072Z,98547.66
2022-11-24T10:53:19.070Z,98553.58
2022-11-24T10:54:17.086Z,98551.04
2022-11-24T10:55:11.074Z,98551.78
2022-11-24T10:56:11.068Z,98552.02
2022-11-24T10:57:15.069Z,98551.05
2022-11-24T10:58:15.078Z,98533.29
2022-11-24T10:59:21.070Z,98536.27
2022-11-24T11:00:19.071Z,98533.10
2022-11-24T11:01:19.202Z,98531.75
2022-11-24T11:02:19.140Z,98528.96
2022-11-24T11:03:20.073Z,98525.88
2022-11-24T11:04:18.072Z,98523.36
2022-11-24T11:05:19.071Z,98517.48
2022-11-24T11:06:21.079Z,98521.14
2022-11-24T11:07:19.181Z,98514.26
2022-11-24T11:08:19.080Z,98512.27
2022-11-24T11:09:19.278Z,98510.36
2022-11-24T11:10:19.094Z,98503.85
2022-11-24T11:11:19.072Z,98505.12
2022-11-24T11:12:43.350Z,98508.95
2022-11-24T11:13:21.405Z,98503.91
2022-11-24T11:14:12.072Z,98506.62
2022-11-24T11:15:19.068Z,98494.18
2022-11-24T11:16:19.104Z,98492.30
2022-11-24T11:17:19.084Z,98496.51
2022-11-24T11:18:16.079Z,98496.46
2022-11-24T11:19:47.475Z,98490.67
2022-11-24T11:20:20.062Z,98491.77
2022-11-24T11:21:19.076Z,98494.89
2022-11-24T11:22:23.074Z,98493.91
2022-11-24T11:23:18.072Z,98486.73
2022-11-24T11:24:17.070Z,98488.25
2022-11-24T11:25:21.075Z,98482.73
2022-11-24T11:26:19.072Z,98483.00
2022-11-24T11:27:18.080Z,98475.06
2022-11-24T11:28:19.115Z,98476.07
2022-11-24T11:31:22.510Z,98475.57
2022-11-24T11:34:26.706Z,98449.25
2022-11-24T11:35:15.046Z,98451.05
2022-11-24T11:36:11.269Z,98443.66
2022-11-24T11:37:11.073Z,98443.29
2022-11-24T11:38:12.078Z,98439.70
2022-11-24T11:39:19.072Z,98443.61
2022-11-24T11:40:17.108Z,98437.99
2022-11-24T11:41:19.084Z,98425.93
2022-11-24T11:42:53.946Z,98428.31
2022-11-24T11:43:23.228Z,98420.30
2022-11-24T11:44:21.072Z,98414.88
2022-11-24T11:45:19.130Z,98416.32
2022-11-24T11:46:15.211Z,98420.34
2022-11-24T11:47:17.111Z,98418.86
2022-11-24T11:48:19.060Z,98412.57
2022-11-24T11:49:13.082Z,98408.35
2022-11-24T11:50:14.163Z,98407.30
2022-11-24T11:51:23.641Z,98411.38
2022-11-24T11:52:19.064Z,98400.39